Time;durP1;ratioP1;P1;durP2;ratioP2;P2;SDS_P1;SDS_P2;PMS_P1;PMS_P2;Temp;Humidity;BMP_temperature;BMP_pressure;BME280_temperature;BME280_humidity;BME280_pressure;Samples;Min_cycle;Max_cycle;Signal;HPM_P1;HPM_P2
2023/07/12 00:01:39;;;;;;;2.47;0.52;;;19.20;99.90;;;;;;4992205;28;20057;-36
2023/07/12 00:04:05;;;;;;;2.00;0.70;;;19.20;99.90;;;;;;5003057;28;20056;-36
2023/07/12 00:06:36;;;;;;;2.17;0.80;;;19.10;99.90;;;;;;4997021;28;20050;-36
2023/07/12 00:09:03;;;;;;;1.10;0.70;;;19.10;99.90;;;;;;4994074;28;20061;-35
2023/07/12 00:11:29;;;;;;;3.65;1.45;;;19.00;99.90;;;;;;4997736;28;20061;-36
2023/07/12 00:13:55;;;;;;;1.33;0.70;;;19.00;99.90;;;;;;4997333;28;20058;-36
2023/07/12 00:16:35;;;;;;;1.98;0.70;;;19.10;99.90;;;;;;5004531;28;20064;-36
2023/07/12 00:19:01;;;;;;;2.00;0.50;;;19.10;99.90;;;;;;5022269;28;20435;-35
2023/07/12 00:21:29;;;;;;;2.50;0.57;;;19.10;99.90;;;;;;4995597;28;20085;-35
2023/07/12 00:23:58;;;;;;;1.67;0.50;;;19.20;99.90;;;;;;5000650;28;20077;-36
2023/07/12 00:26:30;;;;;;;3.17;0.60;;;19.20;99.90;;;;;;5001372;28;20459;-38
2023/07/12 00:28:57;;;;;;;2.80;0.70;;;19.10;99.90;;;;;;4994161;28;20049;-36
2023/07/12 00:31:24;;;;;;;2.90;0.60;;;19.10;99.90;;;;;;4995736;28;20068;-36
2023/07/12 00:33:50;;;;;;;0.90;0.32;;;19.10;99.90;;;;;;4993065;28;20057;-36
2023/07/12 00:36:21;;;;;;;1.40;0.50;;;19.00;99.90;;;;;;4994940;28;20060;-35
2023/07/12 00:38:48;;;;;;;1.55;0.75;;;19.00;99.90;;;;;;4993082;28;20492;-35
2023/07/12 00:41:19;;;;;;;2.05;0.68;;;19.00;99.90;;;;;;4995938;28;20089;-35
2023/07/12 00:44:09;;;;;;;1.88;0.65;;;18.90;99.90;;;;;;5001732;28;20061;-36
2023/07/12 00:46:42;;;;;;;1.10;0.50;;;18.90;99.90;;;;;;5001027;28;20424;-35
2023/07/12 00:49:10;;;;;;;2.05;0.52;;;18.80;99.90;;;;;;4992368;28;20093;-35
2023/07/12 00:51:48;;;;;;;1.40;0.50;;;18.80;99.90;;;;;;4996600;28;20062;-36
2023/07/12 00:54:16;;;;;;;4.65;0.70;;;18.80;99.90;;;;;;5002914;28;20060;-35
2023/07/12 00:56:42;;;;;;;2.05;0.70;;;18.80;99.90;;;;;;5016014;28;20511;-43
2023/07/12 00:59:24;;;;;;;3.13;0.75;;;18.80;99.90;;;;;;5020461;28;20058;-36
2023/07/12 01:01:53;;;;;;;3.65;0.98;;;18.80;99.90;;;;;;5000877;28;20065;-35
2023/07/12 01:04:26;;;;;;;2.05;0.60;;;18.80;99.90;;;;;;4985829;28;20444;-35
2023/07/12 01:06:52;;;;;;;2.70;0.70;;;18.80;99.90;;;;;;5002030;28;20046;-35
2023/07/12 01:09:19;;;;;;;1.75;0.77;;;18.70;99.90;;;;;;5003785;28;20049;-35
2023/07/12 01:11:46;;;;;;;1.77;0.70;;;18.70;99.90;;;;;;5019754;28;20088;-36
2023/07/12 01:14:14;;;;;;;3.40;0.70;;;18.70;99.90;;;;;;4999057;28;20069;-35
2023/07/12 01:16:42;;;;;;;1.20;0.60;;;18.70;99.90;;;;;;4997663;28;20638;-35
2023/07/12 01:19:09;;;;;;;3.00;0.65;;;18.70;99.90;;;;;;5002623;28;20074;-35
2023/07/12 01:21:40;;;;;;;1.48;0.85;;;18.70;99.90;;;;;;5001568;28;20144;-36
2023/07/12 01:24:06;;;;;;;2.13;1.00;;;18.70;99.90;;;;;;5004336;28;20061;-35
2023/07/12 01:26:35;;;;;;;4.45;0.85;;;18.70;99.90;;;;;;5001541;28;20404;-36
2023/07/12 01:29:03;;;;;;;2.92;0.88;;;18.70;99.90;;;;;;5001323;28;20057;-35
2023/07/12 01:31:30;;;;;;;2.13;0.80;;;18.70;99.90;;;;;;5002973;28;20046;-36
2023/07/12 01:33:56;;;;;;;1.88;1.05;;;18.60;99.90;;;;;;5004742;28;20092;-36
2023/07/12 01:36:23;;;;;;;1.92;0.82;;;18.60;99.90;;;;;;5003450;28;20054;-35
2023/07/12 01:38:52;;;;;;;4.07;1.02;;;18.50;99.90;;;;;;5002608;28;20430;-35
2023/07/12 01:41:18;;;;;;;3.33;0.75;;;18.50;99.90;;;;;;5003284;28;20054;-35
2023/07/12 01:43:44;;;;;;;2.08;1.00;;;18.50;99.90;;;;;;5004226;28;20056;-35
2023/07/12 01:46:09;;;;;;;3.38;1.02;;;18.50;99.90;;;;;;5002875;28;20053;-35
2023/07/12 01:48:35;;;;;;;3.20;1.15;;;18.40;99.90;;;;;;4999790;28;20058;-36
2023/07/12 01:51:01;;;;;;;2.65;1.20;;;18.40;99.90;;;;;;5003007;28;20499;-35
2023/07/12 01:53:28;;;;;;;2.05;1.08;;;18.30;99.90;;;;;;5003419;28;20483;-36
2023/07/12 01:55:54;;;;;;;2.05;1.10;;;18.30;99.90;;;;;;5018958;28;20566;-35
2023/07/12 01:58:21;;;;;;;2.28;1.30;;;18.30;99.90;;;;;;5004909;28;20789;-35
2023/07/12 02:00:49;;;;;;;4.35;1.40;;;18.30;99.90;;;;;;5002798;28;20608;-36
2023/07/12 02:03:15;;;;;;;5.90;1.30;;;18.20;99.90;;;;;;5003208;28;20605;-35
2023/07/12 02:05:41;;;;;;;4.85;1.52;;;18.20;99.90;;;;;;5004721;28;20077;-36
2023/07/12 02:08:08;;;;;;;2.67;1.30;;;18.20;99.90;;;;;;5001457;28;20057;-36
2023/07/12 02:10:34;;;;;;;3.42;1.33;;;18.10;99.90;;;;;;5005239;28;20553;-35
2023/07/12 02:13:00;;;;;;;3.15;1.30;;;18.10;99.90;;;;;;5007783;28;20077;-36
2023/07/12 02:15:25;;;;;;;3.72;1.30;;;18.10;99.90;;;;;;5002225;28;20104;-36
2023/07/12 02:17:51;;;;;;;2.47;1.15;;;18.10;99.90;;;;;;5002735;28;20057;-35
2023/07/12 02:20:17;;;;;;;6.15;1.10;;;18.00;99.90;;;;;;5002390;28;20052;-35
2023/07/12 02:22:44;;;;;;;4.30;1.10;;;18.10;99.90;;;;;;5001567;28;20532;-36
2023/07/12 02:25:12;;;;;;;4.22;1.13;;;18.00;99.90;;;;;;5002763;28;20057;-37
2023/07/12 02:27:38;;;;;;;5.03;1.27;;;18.00;99.90;;;;;;5002020;28;20054;-35
2023/07/12 02:30:07;;;;;;;3.75;1.00;;;17.90;99.90;;;;;;5000238;28;20120;-36
2023/07/12 02:32:32;;;;;;;5.97;1.38;;;17.80;99.90;;;;;;5001873;28;20053;-36
2023/07/12 02:34:58;;;;;;;7.75;1.33;;;17.80;99.90;;;;;;5004561;28;20111;-37
2023/07/12 02:37:24;;;;;;;5.05;1.48;;;17.70;99.90;;;;;;5019528;28;20049;-35
2023/07/12 02:39:49;;;;;;;4.00;1.40;;;17.60;99.90;;;;;;5003982;28;20058;-34
2023/07/12 02:42:15;;;;;;;5.35;1.00;;;17.60;99.90;;;;;;5009349;28;20063;-36
2023/07/12 02:44:41;;;;;;;5.55;1.55;;;17.60;99.90;;;;;;5019618;28;20045;-36
2023/07/12 02:47:07;;;;;;;6.28;1.60;;;17.60;99.90;;;;;;5001251;28;20049;-35
2023/07/12 02:49:34;;;;;;;3.05;1.27;;;17.70;99.90;;;;;;4997749;28;20511;-36
2023/07/12 02:51:59;;;;;;;7.25;1.67;;;17.70;99.90;;;;;;5001746;28;20050;-36
2023/07/12 02:54:25;;;;;;;5.22;1.52;;;17.70;99.90;;;;;;5002242;28;20050;-36
2023/07/12 02:56:51;;;;;;;6.55;1.45;;;17.60;99.90;;;;;;5004023;28;20427;-36
2023/07/12 02:59:16;;;;;;;6.80;1.55;;;17.50;99.90;;;;;;5000218;28;20412;-36
2023/07/12 03:01:44;;;;;;;4.70;1.50;;;17.40;99.90;;;;;;5009313;28;20056;-35
2023/07/12 03:04:09;;;;;;;5.40;1.20;;;17.40;99.90;;;;;;5006069;28;20128;-36
2023/07/12 03:06:35;;;;;;;5.07;1.15;;;17.40;99.90;;;;;;5006362;28;20196;-35
2023/07/12 03:09:04;;;;;;;5.63;1.70;;;17.40;99.90;;;;;;5004710;28;20491;-36
2023/07/12 03:11:29;;;;;;;4.68;1.50;;;17.40;99.90;;;;;;5003899;28;20053;-36
2023/07/12 03:13:55;;;;;;;6.57;1.88;;;17.30;99.90;;;;;;5016633;28;20522;-36
2023/07/12 03:16:21;;;;;;;7.10;1.20;;;17.30;99.90;;;;;;5007909;28;20733;-36
2023/07/12 03:18:46;;;;;;;5.82;1.48;;;17.20;99.90;;;;;;5002401;28;20057;-36
2023/07/12 03:21:12;;;;;;;5.15;1.30;;;17.20;99.90;;;;;;5017927;28;20136;-36
2023/07/12 03:23:38;;;;;;;9.75;1.90;;;17.20;99.90;;;;;;5003527;28;20049;-37
2023/07/12 03:26:03;;;;;;;3.10;1.30;;;17.20;99.90;;;;;;5003274;28;20492;-36
2023/07/12 03:28:29;;;;;;;4.57;1.52;;;17.20;99.90;;;;;;5005057;28;20060;-36
2023/07/12 03:31:06;;;;;;;6.22;2.15;;;17.20;99.90;;;;;;5007238;28;20077;-36
2023/07/12 03:33:32;;;;;;;5.38;1.52;;;17.20;99.90;;;;;;5006569;28;20423;-36
2023/07/12 03:35:59;;;;;;;4.88;1.38;;;17.20;99.90;;;;;;5005777;28;20046;-37
2023/07/12 03:38:25;;;;;;;6.63;1.63;;;17.20;99.90;;;;;;5017710;28;20134;-37
2023/07/12 03:40:55;;;;;;;5.38;1.52;;;17.20;99.90;;;;;;5004365;28;20062;-37
2023/07/12 03:43:21;;;;;;;4.80;1.70;;;17.20;99.90;;;;;;5005205;28;20129;-37
2023/07/12 03:45:47;;;;;;;6.40;1.70;;;17.10;99.90;;;;;;5001944;28;20054;-37
2023/07/12 03:48:12;;;;;;;6.13;1.35;;;17.10;99.90;;;;;;5003047;28;20050;-36
2023/07/12 03:50:42;;;;;;;4.85;1.35;;;17.10;99.90;;;;;;5006467;28;20145;-36
2023/07/12 03:53:08;;;;;;;8.68;2.03;;;17.10;99.90;;;;;;5005477;28;20658;-37
2023/07/12 03:55:40;;;;;;;6.43;1.92;;;17.20;99.90;;;;;;5007771;28;20522;-37
2023/07/12 03:58:06;;;;;;;7.15;1.70;;;17.20;99.90;;;;;;5009858;28;20057;-37
2023/07/12 04:00:32;;;;;;;6.82;1.85;;;17.20;99.90;;;;;;5010009;28;20152;-37
2023/07/12 04:02:58;;;;;;;6.78;2.03;;;17.20;99.90;;;;;;5011453;28;20129;-40
2023/07/12 04:05:23;;;;;;;6.97;2.38;;;17.20;99.90;;;;;;5002827;28;20423;-36
2023/07/12 04:07:51;;;;;;;5.00;1.80;;;17.20;99.90;;;;;;5004893;28;20046;-35
2023/07/12 04:10:16;;;;;;;7.85;2.00;;;17.30;99.90;;;;;;5011511;28;20093;-35
2023/07/12 04:12:42;;;;;;;5.68;2.10;;;17.20;99.90;;;;;;5005707;28;20053;-35
2023/07/12 04:15:08;;;;;;;3.08;1.70;;;17.20;99.90;;;;;;5007126;28;20348;-36
2023/07/12 04:17:33;;;;;;;7.28;2.30;;;17.20;99.90;;;;;;5010927;28;20116;-35
2023/07/12 04:19:59;;;;;;;5.30;1.88;;;17.20;99.90;;;;;;5006772;28;20141;-38
2023/07/12 04:22:25;;;;;;;5.95;1.88;;;17.20;99.90;;;;;;5006478;28;20049;-37
2023/07/12 04:24:52;;;;;;;10.30;2.60;;;17.20;99.90;;;;;;5009304;28;20050;-36
2023/07/12 04:27:19;;;;;;;5.82;2.15;;;17.20;99.90;;;;;;5003817;28;20041;-37
2023/07/12 04:29:45;;;;;;;5.97;1.80;;;17.20;99.90;;;;;;5006589;28;20523;-36
2023/07/12 04:32:11;;;;;;;5.65;1.80;;;17.20;99.90;;;;;;5012013;28;20061;-36
2023/07/12 04:34:37;;;;;;;6.72;1.98;;;17.20;99.90;;;;;;5006007;28;20463;-36
2023/07/12 04:37:04;;;;;;;6.18;2.00;;;17.20;99.90;;;;;;4998411;28;20050;-37
2023/07/12 04:39:29;;;;;;;6.63;1.75;;;17.20;99.90;;;;;;5005826;28;20061;-37
2023/07/12 04:41:55;;;;;;;5.32;1.65;;;17.20;99.90;;;;;;5008116;28;20384;-36
2023/07/12 04:44:21;;;;;;;6.13;2.10;;;17.20;99.90;;;;;;5008035;28;20045;-36
2023/07/12 04:46:47;;;;;;;5.72;2.10;;;17.20;99.90;;;;;;5006244;28;20050;-36
2023/07/12 04:49:12;;;;;;;6.28;2.00;;;17.20;99.90;;;;;;5013059;28;20609;-37
2023/07/12 04:51:38;;;;;;;7.18;2.00;;;17.20;99.90;;;;;;4999635;28;20050;-37
2023/07/12 04:54:04;;;;;;;8.05;2.20;;;17.20;99.90;;;;;;5005214;28;20053;-35
2023/07/12 04:56:30;;;;;;;9.82;1.95;;;17.20;99.90;;;;;;5017674;28;20077;-36
2023/07/12 04:58:56;;;;;;;6.15;2.50;;;17.30;99.90;;;;;;5010640;28;20408;-36
2023/07/12 05:01:21;;;;;;;4.05;2.00;;;17.30;99.90;;;;;;5007431;28;20054;-36
2023/07/12 05:03:48;;;;;;;7.10;2.63;;;17.40;99.90;;;;;;5003132;28;20096;-36
2023/07/12 05:06:13;;;;;;;5.53;2.17;;;17.40;99.90;;;;;;5003499;28;20566;-36
2023/07/12 05:08:39;;;;;;;6.40;2.50;;;17.40;99.90;;;;;;5004258;28;20060;-37
2023/07/12 05:11:05;;;;;;;5.72;2.30;;;17.40;99.90;;;;;;5007927;28;20396;-37
2023/07/12 05:13:33;;;;;;;9.43;2.55;;;17.30;99.90;;;;;;5003484;28;20081;-36
2023/07/12 05:15:59;;;;;;;6.20;2.10;;;17.30;99.90;;;;;;5004768;28;20052;-37
2023/07/12 05:18:24;;;;;;;5.60;2.03;;;17.30;99.90;;;;;;5009179;28;20049;-36
2023/07/12 05:20:52;;;;;;;7.20;2.50;;;17.20;99.90;;;;;;5002106;28;20062;-36
2023/07/12 05:23:20;;;;;;;6.70;2.10;;;17.20;99.90;;;;;;5004523;28;20065;-36
2023/07/12 05:25:54;;;;;;;6.50;2.20;;;17.30;99.90;;;;;;5004181;28;20571;-36
2023/07/12 05:28:20;;;;;;;5.60;2.38;;;17.30;99.90;;;;;;4997211;28;20141;-37
2023/07/12 05:30:46;;;;;;;11.18;2.75;;;17.40;99.90;;;;;;5002015;28;20618;-36
2023/07/12 05:33:12;;;;;;;6.00;2.53;;;17.50;99.90;;;;;;5003345;28;20048;-36
2023/07/12 05:35:38;;;;;;;8.50;2.55;;;17.60;99.90;;;;;;5001659;28;20050;-36
2023/07/12 05:38:04;;;;;;;8.88;2.55;;;17.60;99.90;;;;;;5003373;28;20042;-36
2023/07/12 05:40:30;;;;;;;7.40;3.10;;;17.60;99.90;;;;;;5002168;28;20046;-37
2023/07/12 05:42:56;;;;;;;7.30;2.47;;;17.60;99.90;;;;;;5001030;28;20108;-37
2023/07/12 05:45:23;;;;;;;13.00;3.15;;;17.60;99.90;;;;;;4999789;28;20579;-36
2023/07/12 05:47:49;;;;;;;8.98;3.63;;;17.50;99.90;;;;;;4996733;28;20627;-37
2023/07/12 05:50:17;;;;;;;8.30;4.25;;;17.50;99.90;;;;;;4996289;28;20068;-37
2023/07/12 05:52:43;;;;;;;6.15;3.40;;;17.50;99.90;;;;;;5001023;28;20066;-37
2023/07/12 05:55:10;;;;;;;11.07;4.25;;;17.40;99.90;;;;;;5005002;28;20172;-37
2023/07/12 05:57:36;;;;;;;10.45;4.03;;;17.40;99.90;;;;;;5002327;28;20058;-37
2023/07/12 06:00:03;;;;;;;12.70;4.40;;;17.40;99.90;;;;;;5004913;28;20060;-36
2023/07/12 06:02:29;;;;;;;10.68;4.15;;;17.40;99.90;;;;;;5004720;28;20049;-37
2023/07/12 06:04:55;;;;;;;9.75;4.47;;;17.40;99.90;;;;;;5001983;28;20050;-37
2023/07/12 06:07:21;;;;;;;9.57;4.00;;;17.50;99.90;;;;;;4995377;28;20038;-37
2023/07/12 06:09:47;;;;;;;9.70;4.22;;;17.70;99.90;;;;;;5001734;28;20076;-36
2023/07/12 06:12:13;;;;;;;10.68;4.22;;;17.70;99.90;;;;;;4999097;28;20132;-36
2023/07/12 06:14:39;;;;;;;12.43;4.70;;;17.80;99.90;;;;;;4995838;28;20144;-36
2023/07/12 06:17:06;;;;;;;7.95;4.05;;;17.90;99.90;;;;;;4998033;28;20049;-36
2023/07/12 06:19:32;;;;;;;12.95;4.13;;;17.90;99.90;;;;;;4995221;28;20057;-36
2023/07/12 06:21:58;;;;;;;6.80;4.15;;;18.10;99.90;;;;;;4995072;28;20488;-36
2023/07/12 06:24:24;;;;;;;7.85;4.43;;;18.10;99.90;;;;;;5005104;28;20057;-36
2023/07/12 06:26:50;;;;;;;10.00;3.67;;;18.10;99.90;;;;;;5001745;28;20049;-37
2023/07/12 06:29:15;;;;;;;9.05;4.00;;;18.10;99.90;;;;;;5008640;28;20093;-36
2023/07/12 06:31:44;;;;;;;13.38;4.15;;;18.20;99.90;;;;;;5008094;28;20388;-37
2023/07/12 06:34:10;;;;;;;10.20;4.13;;;18.20;99.90;;;;;;5006402;28;20258;-36
2023/07/12 06:36:36;;;;;;;8.52;4.15;;;18.30;99.90;;;;;;5006941;28;20128;-36
2023/07/12 06:39:03;;;;;;;9.88;4.05;;;18.30;99.90;;;;;;4996699;28;20071;-36
2023/07/12 06:41:29;;;;;;;11.57;4.60;;;18.30;99.90;;;;;;5004039;28;20475;-36
2023/07/12 06:43:56;;;;;;;11.13;3.75;;;18.30;99.90;;;;;;5001930;28;20051;-36
2023/07/12 06:46:22;;;;;;;12.38;3.90;;;18.30;99.90;;;;;;4997079;28;20058;-36
2023/07/12 06:48:48;;;;;;;10.50;3.60;;;18.30;99.90;;;;;;4998057;28;20563;-36
2023/07/12 06:51:14;;;;;;;6.72;2.85;;;18.30;99.90;;;;;;4996707;28;20139;-36
2023/07/12 06:53:40;;;;;;;6.22;3.50;;;18.30;99.90;;;;;;5003439;28;20056;-36
2023/07/12 06:56:05;;;;;;;8.32;3.33;;;18.30;99.90;;;;;;4995737;28;20057;-36
2023/07/12 06:58:31;;;;;;;7.40;3.03;;;18.30;99.90;;;;;;5003793;28;20053;-37
2023/07/12 07:00:57;;;;;;;9.30;3.45;;;18.30;99.90;;;;;;4998159;28;20056;-37
2023/07/12 07:03:23;;;;;;;7.10;3.00;;;18.30;99.90;;;;;;5000050;28;20060;-36
2023/07/12 07:05:48;;;;;;;7.25;3.17;;;18.30;99.90;;;;;;5002757;28;20440;-37
2023/07/12 07:08:17;;;;;;;11.80;3.22;;;18.40;99.90;;;;;;5004358;28;20045;-36
2023/07/12 07:10:47;;;;;;;8.95;3.25;;;18.40;99.90;;;;;;5019607;28;20582;-37
2023/07/12 07:13:13;;;;;;;7.38;3.25;;;18.50;99.90;;;;;;5005932;28;20563;-37
2023/07/12 07:15:38;;;;;;;8.48;3.60;;;18.50;99.90;;;;;;5004388;28;20188;-37
2023/07/12 07:18:04;;;;;;;9.80;3.97;;;18.60;99.90;;;;;;5006535;28;20080;-37
2023/07/12 07:20:30;;;;;;;8.38;3.63;;;18.50;99.90;;;;;;5001018;28;20065;-37
2023/07/12 07:22:56;;;;;;;8.30;4.25;;;18.50;99.90;;;;;;5003697;28;20042;-39
2023/07/12 07:25:22;;;;;;;10.65;3.60;;;18.40;99.90;;;;;;5011305;28;20100;-37
2023/07/12 07:27:48;;;;;;;9.45;3.75;;;18.50;99.90;;;;;;5027109;28;20057;-36
2023/07/12 07:30:14;;;;;;;8.90;4.28;;;18.60;99.90;;;;;;5005049;28;20389;-37
2023/07/12 07:32:40;;;;;;;9.57;3.80;;;18.80;99.90;;;;;;5008064;28;20416;-37
2023/07/12 07:35:06;;;;;;;7.47;3.25;;;19.00;99.90;;;;;;5014642;28;20068;-36
2023/07/12 07:37:31;;;;;;;14.63;4.55;;;19.10;99.90;;;;;;5002034;28;20053;-36
2023/07/12 07:39:57;;;;;;;7.25;3.60;;;19.20;99.90;;;;;;5002734;28;20096;-36
2023/07/12 07:42:23;;;;;;;8.50;3.67;;;19.30;99.90;;;;;;5006270;28;20042;-36
2023/07/12 07:44:49;;;;;;;8.35;3.90;;;19.30;99.90;;;;;;4998688;28;20102;-37
2023/07/12 07:47:15;;;;;;;9.95;3.85;;;19.40;99.90;;;;;;4990145;28;20053;-37
2023/07/12 07:49:41;;;;;;;9.63;3.08;;;19.50;99.90;;;;;;5006956;28;20053;-37
2023/07/12 07:52:07;;;;;;;9.40;3.95;;;19.60;99.90;;;;;;4992872;28;20148;-37
2023/07/12 07:54:32;;;;;;;8.05;3.63;;;19.70;99.90;;;;;;4995862;28;20062;-35
2023/07/12 07:56:58;;;;;;;11.43;5.28;;;19.70;99.90;;;;;;5001640;28;20050;-37
2023/07/12 07:59:24;;;;;;;10.05;4.30;;;19.90;99.90;;;;;;4999505;28;20061;-35
2023/07/12 08:01:49;;;;;;;8.95;3.88;;;20.00;99.90;;;;;;4996805;28;20057;-36
2023/07/12 08:04:15;;;;;;;4.68;2.65;;;20.20;99.90;;;;;;4997434;28;20104;-36
2023/07/12 08:06:41;;;;;;;6.13;2.97;;;20.30;99.90;;;;;;4991272;28;20620;-37
2023/07/12 08:09:07;;;;;;;8.60;3.60;;;20.20;99.90;;;;;;4991743;28;20077;-36
2023/07/12 08:11:33;;;;;;;12.60;3.53;;;20.10;99.90;;;;;;5005123;28;20050;-36
2023/07/12 08:13:59;;;;;;;9.13;3.33;;;19.80;99.90;;;;;;5000050;28;20058;-36
2023/07/12 08:16:27;;;;;;;7.88;3.10;;;19.70;99.90;;;;;;4994044;28;20093;-36
2023/07/12 08:18:53;;;;;;;7.90;2.70;;;19.60;99.90;;;;;;5001777;28;20658;-35
2023/07/12 08:21:19;;;;;;;7.07;2.50;;;19.40;99.90;;;;;;5001996;28;20081;-35
2023/07/12 08:23:45;;;;;;;9.48;2.80;;;19.40;99.90;;;;;;5010244;28;20042;-35
2023/07/12 08:26:11;;;;;;;11.48;2.97;;;19.30;99.90;;;;;;4994542;28;20053;-35
2023/07/12 08:28:37;;;;;;;8.07;2.97;;;19.30;99.90;;;;;;4998730;28;20042;-36
2023/07/12 08:31:03;;;;;;;7.97;3.22;;;19.10;99.90;;;;;;4999828;28;20061;-36
2023/07/12 08:33:28;;;;;;;9.80;2.55;;;19.00;99.90;;;;;;5000926;28;20107;-36
2023/07/12 08:35:54;;;;;;;8.98;3.15;;;18.80;99.90;;;;;;4990672;28;20110;-36
2023/07/12 08:38:20;;;;;;;11.40;3.13;;;18.70;99.90;;;;;;4999102;28;20057;-36
2023/07/12 08:40:49;;;;;;;9.00;2.80;;;18.60;99.90;;;;;;5001513;28;20582;-36
2023/07/12 08:43:18;;;;;;;9.40;3.22;;;18.50;99.90;;;;;;4998713;28;20046;-36
2023/07/12 08:45:46;;;;;;;9.10;2.83;;;18.40;99.90;;;;;;5021526;28;20060;-36
2023/07/12 08:48:23;;;;;;;8.00;3.30;;;18.40;99.90;;;;;;4997790;28;20070;-36
2023/07/12 08:50:50;;;;;;;10.05;2.95;;;18.40;99.90;;;;;;5016953;28;20054;-36
2023/07/12 08:53:22;;;;;;;10.02;3.03;;;18.50;99.90;;;;;;5007695;28;20050;-36
2023/07/12 08:55:49;;;;;;;;;;;18.70;99.90;;;;;;4995907;28;20086;-36
2023/07/12 08:58:33;;;;;;;5.47;2.25;;;18.90;99.90;;;;;;4998735;28;19917;-36
2023/07/12 09:01:03;;;;;;;4.32;2.47;;;19.10;99.90;;;;;;5001477;28;20140;-36
2023/07/12 09:03:29;;;;;;;6.72;2.40;;;19.30;99.90;;;;;;4999944;28;20053;-36
2023/07/12 09:05:55;;;;;;;6.70;2.80;;;19.50;99.90;;;;;;4996863;28;20147;-36
2023/07/12 09:08:30;;;;;;;8.57;2.33;;;19.90;99.90;;;;;;5012093;28;20049;-36
2023/07/12 09:10:57;;;;;;;8.82;2.42;;;20.20;99.90;;;;;;4987301;28;20053;-36
2023/07/12 09:13:35;;;;;;;10.77;2.08;;;20.10;99.90;;;;;;5007012;28;20057;-36
2023/07/12 09:16:01;;;;;;;8.75;1.70;;;20.00;99.90;;;;;;4984048;28;20061;-36
2023/07/12 09:18:29;;;;;;;7.15;1.75;;;19.80;99.90;;;;;;4995040;28;20407;-36
2023/07/12 09:20:57;;;;;;;10.70;2.20;;;19.70;99.90;;;;;;4997501;28;20041;-36
2023/07/12 09:23:22;;;;;;;6.70;2.15;;;19.60;99.90;;;;;;5005696;28;20431;-36
2023/07/12 09:25:55;;;;;;;8.38;2.17;;;19.50;99.90;;;;;;5000009;28;20057;-36
2023/07/12 09:28:21;;;;;;;5.57;1.70;;;19.50;99.90;;;;;;5001571;28;20050;-36
2023/07/12 09:30:49;;;;;;;7.10;1.80;;;19.60;99.90;;;;;;5026261;28;20054;-35
2023/07/12 09:33:18;;;;;;;6.13;2.08;;;19.60;99.90;;;;;;4994712;28;20065;-35
2023/07/12 09:35:45;;;;;;;7.25;1.50;;;19.50;99.90;;;;;;4998235;28;20042;-35
2023/07/12 09:38:23;;;;;;;6.55;2.08;;;19.60;99.90;;;;;;4996870;28;20046;-35
2023/07/12 09:40:50;;;;;;;5.00;1.70;;;19.70;99.90;;;;;;4993436;28;20104;-35
2023/07/12 09:43:25;;;;;;;4.50;1.42;;;20.00;99.90;;;;;;4993647;28;20153;-35
2023/07/12 09:46:23;;;;;;;7.50;1.77;;;20.10;99.90;;;;;;5006791;28;20054;-36
2023/07/12 09:49:10;;;;;;;8.05;1.52;;;20.30;99.90;;;;;;5004347;28;20064;-35
2023/07/12 09:51:39;;;;;;;4.40;1.70;;;20.20;99.90;;;;;;4994721;28;20050;-36
2023/07/12 09:54:24;;;;;;;7.75;1.85;;;20.10;99.90;;;;;;4996171;28;20062;-35
2023/07/12 09:56:56;;;;;;;5.25;1.50;;;20.20;99.90;;;;;;5006154;28;20482;-35
2023/07/12 09:59:24;;;;;;;4.43;1.33;;;20.40;99.90;;;;;;4998108;28;20050;-35
2023/07/12 10:01:59;;;;;;;4.43;1.60;;;20.30;99.90;;;;;;5002091;28;20058;-35
2023/07/12 10:04:47;;;;;;;5.10;1.30;;;20.40;99.90;;;;;;5002845;28;20057;-35
2023/07/12 10:07:29;;;;;;;2.67;1.08;;;20.60;99.90;;;;;;4990558;28;20053;-36
2023/07/12 10:09:56;;;;;;;3.80;1.33;;;20.70;99.90;;;;;;4995751;28;20054;-35
2023/07/12 10:12:43;;;;;;;7.00;1.00;;;20.90;99.90;;;;;;5005093;28;20283;-35
2023/07/12 10:15:13;;;;;;;2.95;1.02;;;21.00;99.90;;;;;;4991514;28;20239;-35
2023/07/12 10:17:43;;;;;;;2.20;0.82;;;20.90;99.90;;;;;;5009491;28;20555;-35
2023/07/12 10:20:22;;;;;;;4.38;0.70;;;21.00;99.90;;;;;;4993997;28;20116;-35
2023/07/12 10:22:49;;;;;;;3.08;0.73;;;21.10;99.90;;;;;;4990655;28;20050;-35
2023/07/12 10:25:15;;;;;;;5.00;0.80;;;21.20;99.90;;;;;;4994428;28;20482;-35
2023/07/12 10:27:46;;;;;;;2.72;1.13;;;21.10;99.90;;;;;;4998439;28;20140;-35
2023/07/12 10:30:17;;;;;;;2.78;0.70;;;21.00;99.90;;;;;;4994012;28;20049;-35
2023/07/12 10:32:51;;;;;;;4.53;1.03;;;21.10;99.90;;;;;;5003765;28;20138;-35
2023/07/12 10:35:26;;;;;;;5.28;1.20;;;21.40;99.90;;;;;;4995708;28;20286;-35
2023/07/12 10:38:11;;;;;;;4.15;1.00;;;21.40;99.90;;;;;;4996344;28;20097;-35
2023/07/12 10:40:43;;;;;;;2.97;0.90;;;21.50;99.90;;;;;;4995882;28;20503;-36
2023/07/12 10:43:33;;;;;;;2.80;0.70;;;21.60;99.90;;;;;;4991177;28;20104;-36
2023/07/12 10:46:13;;;;;;;3.25;0.88;;;21.60;99.90;;;;;;5005775;28;20127;-36
2023/07/12 10:48:49;;;;;;;2.53;0.80;;;21.80;99.90;;;;;;4988874;28;20049;-36
2023/07/12 10:51:36;;;;;;;4.57;1.10;;;21.90;99.90;;;;;;4995366;28;20499;-35
2023/07/12 10:54:03;;;;;;;4.47;0.98;;;22.00;99.90;;;;;;4994850;28;20058;-35
2023/07/12 10:56:49;;;;;;;3.22;0.88;;;22.10;99.90;;;;;;4999937;28;20508;-35
2023/07/12 10:59:30;;;;;;;3.92;1.20;;;22.20;99.90;;;;;;5002071;28;20062;-35
2023/07/12 11:02:03;;;;;;;1.95;0.82;;;22.30;99.90;;;;;;5003259;28;20054;-35
2023/07/12 11:04:31;;;;;;;;;;;22.30;99.90;;;;;;4989894;28;20049;-35
2023/07/12 11:07:04;;;;;;;2.40;0.88;;;22.30;99.90;;;;;;4993939;28;19940;-35
2023/07/12 11:09:48;;;;;;;;;;;22.20;99.90;;;;;;4993842;28;20429;-35
2023/07/12 11:12:29;;;;;;;4.22;1.38;;;22.20;99.90;;;;;;4981784;28;19955;-35
2023/07/12 11:15:06;;;;;;;3.25;0.85;;;22.20;99.90;;;;;;4992597;28;20143;-35
2023/07/12 11:17:59;;;;;;;2.38;0.82;;;22.30;99.90;;;;;;4996886;28;20050;-35
2023/07/12 11:20:28;;;;;;;2.40;0.80;;;22.30;99.90;;;;;;5000104;28;20054;-36
2023/07/12 11:23:00;;;;;;;1.98;0.68;;;22.20;99.90;;;;;;4998824;28;20061;-36
2023/07/12 11:25:48;;;;;;;1.65;0.60;;;22.30;99.90;;;;;;4984052;28;20515;-35
2023/07/12 11:28:22;;;;;;;6.28;0.90;;;22.00;99.90;;;;;;4992101;28;20054;-36
2023/07/12 11:31:04;;;;;;;3.00;0.60;;;21.90;99.90;;;;;;5005287;28;20418;-35
2023/07/12 11:33:33;;;;;;;4.93;1.17;;;21.90;99.90;;;;;;4997852;28;20070;-35
2023/07/12 11:36:06;;;;;;;3.60;0.80;;;22.00;99.90;;;;;;4992131;28;20077;-34
2023/07/12 11:38:34;;;;;;;2.28;0.77;;;22.10;99.90;;;;;;5001032;28;20100;-36
2023/07/12 11:41:27;;;;;;;1.75;0.88;;;22.20;99.90;;;;;;4991955;28;20086;-36
2023/07/12 11:44:04;;;;;;;2.22;1.08;;;22.30;99.90;;;;;;4988035;28;20339;-36
2023/07/12 11:46:34;;;;;;;3.50;1.10;;;22.30;99.90;;;;;;4988412;28;20043;-36
2023/07/12 11:49:12;;;;;;;3.58;1.20;;;22.50;99.90;;;;;;4989728;28;20488;-36
2023/07/12 11:51:40;;;;;;;3.35;0.90;;;22.50;99.90;;;;;;4988835;28;20480;-36
2023/07/12 11:54:23;;;;;;;1.77;0.60;;;22.50;99.90;;;;;;4992377;28;20053;-36
2023/07/12 11:56:52;;;;;;;0.88;0.47;;;22.40;99.90;;;;;;4994461;28;20084;-36
2023/07/12 11:59:21;;;;;;;1.83;0.43;;;22.50;99.90;;;;;;5002597;28;20045;-36
2023/07/12 12:01:49;;;;;;;1.65;0.63;;;22.60;99.90;;;;;;4996371;28;20050;-36
2023/07/12 12:04:24;;;;;;;2.58;0.75;;;22.70;99.90;;;;;;4999898;28;20054;-36
2023/07/12 12:07:02;;;;;;;1.30;0.50;;;22.70;99.90;;;;;;4986264;28;20134;-36
2023/07/12 12:09:35;;;;;;;1.08;0.40;;;22.80;99.90;;;;;;4983098;28;20133;-36
2023/07/12 12:12:05;;;;;;;2.15;0.50;;;22.80;99.90;;;;;;4988580;28;20045;-36
2023/07/12 12:14:38;;;;;;;0.80;0.40;;;22.70;99.90;;;;;;5009292;28;20085;-35
2023/07/12 12:17:06;;;;;;;1.80;0.47;;;22.70;99.90;;;;;;4997553;28;20054;-35
2023/07/12 12:19:32;;;;;;;1.30;0.47;;;22.70;99.90;;;;;;5013084;28;20099;-35
2023/07/12 12:22:23;;;;;;;1.10;0.50;;;22.70;99.90;;;;;;4999255;28;20499;-35
2023/07/12 12:24:53;;;;;;;1.83;0.60;;;22.80;99.90;;;;;;5004649;28;20652;-35
2023/07/12 12:27:35;;;;;;;1.17;0.32;;;22.90;99.90;;;;;;5000933;28;20058;-35
2023/07/12 12:30:16;;;;;;;1.77;0.47;;;22.90;99.90;;;;;;4994858;28;20101;-34
2023/07/12 12:32:54;;;;;;;1.67;0.50;;;22.90;99.90;;;;;;4989330;28;20054;-35
2023/07/12 12:35:21;;;;;;;1.23;0.43;;;22.80;99.90;;;;;;5005034;28;20046;-34
2023/07/12 12:38:18;;;;;;;2.05;0.65;;;22.90;99.90;;;;;;5006164;28;20046;-35
2023/07/12 12:40:56;;;;;;;1.17;0.40;;;22.90;99.90;;;;;;4995016;28;20078;-36
2023/07/12 12:43:23;;;;;;;5.90;0.60;;;22.80;99.90;;;;;;4998218;28;20054;-35
2023/07/12 12:45:49;;;;;;;1.77;0.60;;;22.90;99.90;;;;;;5005964;28;20542;-35
2023/07/12 12:48:14;;;;;;;1.10;0.40;;;22.90;99.90;;;;;;4992106;28;20049;-35
2023/07/12 12:50:40;;;;;;;3.42;1.15;;;22.90;99.90;;;;;;5002321;28;20516;-35
2023/07/12 12:53:12;;;;;;;3.83;0.60;;;22.90;99.90;;;;;;5006649;28;20058;-35
2023/07/12 12:55:39;;;;;;;1.88;0.50;;;23.10;99.90;;;;;;5005195;28;20764;-38